Time;durP1;ratioP1;P1;durP2;ratioP2;P2;SDS_P1;SDS_P2;PMS_P1;PMS_P2;Temp;Humidity;BMP_temperature;BMP_pressure;BME280_temperature;BME280_humidity;BME280_pressure;Samples;Min_cycle;Max_cycle;Signal;HPM_P1;HPM_P2
2022/04/04 00:01:29;;;;;;;;;;;4.00;99.90;;;;;;4935123;29;20001;-90
2022/04/04 00:03:54;;;;;;;;;;;4.00;99.90;;;;;;4955836;29;19918;-90
2022/04/04 00:06:20;;;;;;;;;;;4.00;99.90;;;;;;4939930;29;20362;-90
2022/04/04 00:08:46;;;;;;;;;;;3.90;99.90;;;;;;4938145;29;20280;-91
2022/04/04 00:11:12;;;;;;;;;;;3.80;99.90;;;;;;4935257;29;19911;-90
2022/04/04 00:13:37;;;;;;;;;;;3.80;99.90;;;;;;4953326;29;19975;-90
2022/04/04 00:16:03;;;;;;;;;;;3.80;99.90;;;;;;4935283;29;19946;-90
2022/04/04 00:18:29;;;;;;;;;;;3.70;99.90;;;;;;4936001;29;19911;-90
2022/04/04 00:20:54;;;;;;;;;;;3.70;99.90;;;;;;4937489;29;19911;-90
2022/04/04 00:23:20;;;;;;;;;;;3.60;99.90;;;;;;4938105;29;19925;-90
2022/04/04 00:25:46;;;;;;;;;;;3.60;99.90;;;;;;4935088;29;19911;-90
2022/04/04 00:28:12;;;;;;;;;;;3.50;99.90;;;;;;4940390;29;19911;-90
2022/04/04 00:30:38;;;;;;;;;;;3.50;99.90;;;;;;4935664;29;19983;-90
2022/04/04 00:33:05;;;;;;;;;;;3.50;99.90;;;;;;4936595;29;19931;-90
2022/04/04 00:35:30;;;;;;;;;;;3.50;99.90;;;;;;4937520;29;20352;-90
2022/04/04 00:38:00;;;;;;;;;;;3.50;99.90;;;;;;4955401;29;19907;-90
2022/04/04 00:40:25;;;;;;;;;;;3.50;99.90;;;;;;4937510;29;19918;-91
2022/04/04 00:42:51;;;;;;;;;;;3.40;99.90;;;;;;4940554;29;20272;-90
2022/04/04 00:45:17;;;;;;;;;;;3.30;99.90;;;;;;4934627;29;19970;-90
2022/04/04 00:47:43;;;;;;;;;;;3.20;99.90;;;;;;4934102;29;19974;-90
2022/04/04 00:50:09;;;;;;;;;;;3.20;99.90;;;;;;4935956;29;19923;-90
2022/04/04 00:52:34;;;;;;;;;;;3.20;99.90;;;;;;4919520;29;19911;-90
2022/04/04 00:55:00;;;;;;;;;;;3.20;99.90;;;;;;4933610;29;19934;-90
2022/04/04 00:57:26;;;;;;;;;;;3.30;99.90;;;;;;4918060;29;19965;-90
2022/04/04 00:59:52;;;;;;;;;;;3.20;99.90;;;;;;4932843;29;20310;-90
2022/04/04 01:02:17;;;;;;;;;;;3.20;99.90;;;;;;4919557;29;19921;-90
2022/04/04 01:04:43;;;;;;;;;;;3.20;99.90;;;;;;4916360;29;19939;-89
2022/04/04 01:07:09;;;;;;;;;;;3.20;99.90;;;;;;4918591;29;19966;-91
2022/04/04 01:09:34;;;;;;;;;;;3.20;99.90;;;;;;4916795;29;19950;-90
2022/04/04 01:12:05;;;;;;;;;;;3.20;99.90;;;;;;4934408;29;20163;-90
2022/04/04 01:14:31;;;;;;;;;;;3.20;99.90;;;;;;4935137;29;19938;-90
2022/04/04 01:16:56;;;;;;;;;;;3.20;99.90;;;;;;4917647;29;19911;-90
2022/04/04 01:19:22;;;;;;;;;;;3.20;99.90;;;;;;4921027;29;19919;-91
2022/04/04 01:21:47;;;;;;;;;;;3.20;99.90;;;;;;4934632;29;19922;-90
2022/04/04 01:24:22;;;;;;;;;;;3.20;99.90;;;;;;4918563;29;20502;-90
2022/04/04 01:26:48;;;;;;;;;;;3.10;99.90;;;;;;4932191;29;20397;-90
2022/04/04 01:29:14;;;;;;;;;;;3.10;99.90;;;;;;4917665;29;19911;-91
2022/04/04 01:31:39;;;;;;;;;;;3.00;99.90;;;;;;4931719;29;19986;-90
2022/04/04 01:34:05;;;;;;;;;;;3.00;99.90;;;;;;4921057;29;19911;-90
2022/04/04 01:36:31;;;;;;;;;;;3.00;99.90;;;;;;4930473;29;19912;-90
2022/04/04 01:38:56;;;;;;;;;;;3.00;99.90;;;;;;4918583;29;20094;-90
2022/04/04 01:41:22;;;;;;;;;;;3.00;99.90;;;;;;4930639;29;20372;-91
2022/04/04 01:43:48;;;;;;;;;;;3.00;99.90;;;;;;4918455;29;19937;-91
2022/04/04 01:46:26;;;;;;;;;;;3.00;99.90;;;;;;4920718;29;19985;-90
2022/04/04 01:48:56;;;;;;;;;;;3.10;99.90;;;;;;4940159;28;20376;-90
2022/04/04 01:51:22;;;;;;;;;;;3.10;99.90;;;;;;4935318;29;19942;-90
2022/04/04 01:53:48;;;;;;;;;;;3.10;99.90;;;;;;4936077;29;20339;-90
2022/04/04 01:56:14;;;;;;;;;;;3.10;99.90;;;;;;4936531;29;19911;-90
2022/04/04 01:58:40;;;;;;;;;;;3.10;99.90;;;;;;4938616;29;20270;-90
2022/04/04 02:01:13;;;;;;;;;;;3.00;99.90;;;;;;4935961;29;19958;-90
2022/04/04 02:03:41;;;;;;;;;;;3.00;99.90;;;;;;4936144;29;20035;-90
2022/04/04 02:06:06;;;;;;;;;;;3.00;99.90;;;;;;4943848;29;19914;-90
2022/04/04 02:08:32;;;;;;;;;;;3.00;99.90;;;;;;4956628;29;20364;-90
2022/04/04 02:10:58;;;;;;;;;;;3.00;99.90;;;;;;4941009;29;20009;-90
2022/04/04 02:13:25;;;;;;;;;;;3.10;99.90;;;;;;4937929;29;19911;-90
2022/04/04 02:15:52;;;;;;;;;;;3.10;99.90;;;;;;4937870;29;19942;-90
2022/04/04 02:18:17;;;;;;;;;;;3.10;99.90;;;;;;4936451;29;19930;-90
2022/04/04 02:20:43;;;;;;;;;;;3.10;99.90;;;;;;4938570;29;19983;-90
2022/04/04 02:23:09;;;;;;;;;;;3.20;99.90;;;;;;4938883;29;19919;-90
2022/04/04 02:25:34;;;;;;;;;;;3.10;99.90;;;;;;4936967;29;19922;-90
2022/04/04 02:28:00;;;;;;;;;;;3.10;99.90;;;;;;4940704;29;19910;-90
2022/04/04 02:30:25;;;;;;;;;;;3.00;99.90;;;;;;4937283;29;19918;-90
2022/04/04 02:32:51;;;;;;;;;;;2.90;99.90;;;;;;4938581;29;19911;-90
2022/04/04 02:35:17;;;;;;;;;;;2.90;99.90;;;;;;4938729;29;19955;-90
2022/04/04 02:37:43;;;;;;;;;;;2.80;99.90;;;;;;4941589;29;20418;-90
2022/04/04 02:40:09;;;;;;;;;;;2.80;99.90;;;;;;4940734;29;20330;-90
2022/04/04 02:42:35;;;;;;;;;;;2.70;99.90;;;;;;4937640;29;19921;-90
2022/04/04 02:45:00;;;;;;;;;;;2.80;99.90;;;;;;4938099;29;19910;-90
2022/04/04 02:47:26;;;;;;;;;;;2.80;99.90;;;;;;4939149;29;19911;-90
2022/04/04 02:49:51;;;;;;;;;;;2.70;99.90;;;;;;4938669;29;20406;-90
2022/04/04 02:52:17;;;;;;;;;;;2.70;99.90;;;;;;4937635;29;19917;-90
2022/04/04 02:54:42;;;;;;;;;;;2.70;99.90;;;;;;4937518;29;19918;-90
2022/04/04 02:57:08;;;;;;;;;;;2.60;99.90;;;;;;4937897;29;19917;-90
2022/04/04 02:59:34;;;;;;;;;;;2.60;99.90;;;;;;4938769;29;19911;-90
2022/04/04 03:01:59;;;;;;;;;;;2.60;99.90;;;;;;4939615;29;19915;-90
2022/04/04 03:04:25;;;;;;;;;;;2.70;99.90;;;;;;4940322;29;19946;-90
2022/04/04 03:06:50;;;;;;;;;;;2.70;99.90;;;;;;4935650;29;19906;-90
2022/04/04 03:09:16;;;;;;;;;;;2.80;99.90;;;;;;4938064;29;19957;-89
2022/04/04 03:11:41;;;;;;;;;;;2.80;99.90;;;;;;4937274;29;19918;-90
2022/04/04 03:14:07;;;;;;;;;;;2.80;99.90;;;;;;4938343;29;19914;-90
2022/04/04 03:16:33;;;;;;;;;;;2.80;99.90;;;;;;4937212;29;19962;-90
2022/04/04 03:18:59;;;;;;;;;;;2.80;99.90;;;;;;4935595;29;20494;-90
2022/04/04 03:21:27;;;;;;;;;;;2.80;99.90;;;;;;4941889;29;19965;-90
2022/04/04 03:23:53;;;;;;;;;;;2.80;99.90;;;;;;4940095;29;20420;-90
2022/04/04 03:26:19;;;;;;;;;;;2.80;99.90;;;;;;4936900;29;20078;-90
2022/04/04 03:28:45;;;;;;;;;;;2.80;99.90;;;;;;4942546;29;19945;-90
2022/04/04 03:31:11;;;;;;;;;;;2.80;99.90;;;;;;4938492;29;19911;-89
2022/04/04 03:33:37;;;;;;;;;;;2.80;99.90;;;;;;4938245;29;19915;-89
2022/04/04 03:36:03;;;;;;;;;;;2.70;99.90;;;;;;4938150;29;19911;-89
2022/04/04 03:38:29;;;;;;;;;;;2.70;99.90;;;;;;4939553;29;20230;-89
2022/04/04 03:40:54;;;;;;;;;;;2.60;99.90;;;;;;4939090;29;20419;-90
2022/04/04 03:43:21;;;;;;;;;;;2.60;99.90;;;;;;4938201;29;19974;-90
2022/04/04 03:45:46;;;;;;;;;;;2.50;99.90;;;;;;4936085;29;19933;-89
2022/04/04 03:48:12;;;;;;;;;;;2.50;99.90;;;;;;4938802;29;20183;-89
2022/04/04 03:50:38;;;;;;;;;;;2.50;99.90;;;;;;4939799;29;19969;-90
2022/04/04 03:53:05;;;;;;;;;;;2.60;99.90;;;;;;4936345;29;19918;-90
2022/04/04 03:55:32;;;;;;;;;;;2.60;99.90;;;;;;4936341;29;19911;-89
2022/04/04 03:57:58;;;;;;;;;;;2.50;99.90;;;;;;4937950;29;19911;-90
2022/04/04 04:00:25;;;;;;;;;;;2.50;99.90;;;;;;4939262;29;19978;-90
2022/04/04 04:02:51;;;;;;;;;;;2.40;99.90;;;;;;4938382;29;19922;-90
2022/04/04 04:05:16;;;;;;;;;;;2.40;99.90;;;;;;4939068;29;19918;-90
2022/04/04 04:07:42;;;;;;;;;;;2.20;99.90;;;;;;4936974;29;19922;-90
2022/04/04 04:10:11;;;;;;;;;;;2.20;99.90;;;;;;4934834;29;19915;-90
2022/04/04 04:12:39;;;;;;;;;;;2.30;99.90;;;;;;4936234;29;19911;-89
2022/04/04 04:15:06;;;;;;;;;;;2.20;99.90;;;;;;4937408;29;19950;-90
2022/04/04 04:17:32;;;;;;;;;;;2.20;99.90;;;;;;4935476;29;20053;-90
2022/04/04 04:22:41;;;;;;;;;;;2.20;99.90;;;;;;4937911;29;19921;-89
2022/04/04 04:25:07;;;;;;;;;;;2.20;99.90;;;;;;4938190;29;19915;-90
2022/04/04 04:27:33;;;;;;;;;;;2.20;99.90;;;;;;4937137;29;20343;-89
2022/04/04 04:29:59;;;;;;;;;;;2.10;99.90;;;;;;4935414;29;19917;-89
2022/04/04 04:32:25;;;;;;;;;;;2.10;99.90;;;;;;4936825;29;19911;-89
2022/04/04 04:34:51;;;;;;;;;;;2.10;99.90;;;;;;4936974;29;20152;-90
2022/04/04 04:37:17;;;;;;;;;;;2.10;99.90;;;;;;4956576;29;19907;-89
2022/04/04 04:39:43;;;;;;;;;;;2.20;99.90;;;;;;4935802;29;19914;-89
2022/04/04 04:42:09;;;;;;;;;;;2.20;99.90;;;;;;4942088;29;20500;-89
2022/04/04 04:44:34;;;;;;;;;;;2.20;99.90;;;;;;4953807;29;19988;-89
2022/04/04 04:47:00;;;;;;;;;;;2.20;99.90;;;;;;4938435;29;19911;-89
2022/04/04 04:49:26;;;;;;;;;;;2.20;99.90;;;;;;4936058;29;19926;-90
2022/04/04 04:51:52;;;;;;;;;;;2.20;99.90;;;;;;4939253;29;20001;-92
2022/04/04 04:54:18;;;;;;;;;;;2.20;99.90;;;;;;4940795;29;19907;-89
2022/04/04 04:56:43;;;;;;;;;;;2.20;99.90;;;;;;4934107;29;19911;-90
2022/04/04 04:59:09;;;;;;;;;;;2.20;99.90;;;;;;4953806;29;20371;-89
2022/04/04 05:01:35;;;;;;;;;;;2.10;99.90;;;;;;4935903;29;19981;-90
2022/04/04 05:04:01;;;;;;;;;;;2.00;99.90;;;;;;4934994;29;19966;-90
2022/04/04 05:06:26;;;;;;;;;;;2.00;99.90;;;;;;4934926;29;19911;-89
2022/04/04 05:08:55;;;;;;;;;;;2.00;99.90;;;;;;4940625;29;19982;-90
2022/04/04 05:11:21;;;;;;;;;;;2.00;99.90;;;;;;4939377;29;19911;-90
2022/04/04 05:13:47;;;;;;;;;;;1.90;99.90;;;;;;4936265;29;19915;-93
2022/04/04 05:16:14;;;;;;;;;;;1.90;99.90;;;;;;4932656;29;20340;-89
2022/04/04 05:18:42;;;;;;;;;;;1.90;99.90;;;;;;4933297;29;19961;-89
2022/04/04 05:21:09;;;;;;;;;;;1.90;99.90;;;;;;4932031;29;19915;-89
2022/04/04 05:23:35;;;;;;;;;;;1.80;99.90;;;;;;4932025;29;20346;-89
2022/04/04 05:26:01;;;;;;;;;;;1.80;99.90;;;;;;4933406;29;19918;-90
2022/04/04 05:28:26;;;;;;;;;;;1.80;99.90;;;;;;4913812;29;19911;-90
2022/04/04 05:30:52;;;;;;;;;;;1.80;99.90;;;;;;4933164;29;20353;-89
2022/04/04 05:33:17;;;;;;;;;;;1.80;99.90;;;;;;4933494;29;19938;-90
2022/04/04 05:35:43;;;;;;;;;;;1.80;99.90;;;;;;4933376;29;20054;-89
2022/04/04 05:38:09;;;;;;;;;;;1.80;99.90;;;;;;4933714;29;19958;-90
2022/04/04 05:40:35;;;;;;;;;;;1.80;99.90;;;;;;4933772;29;20350;-90
2022/04/04 05:43:01;;;;;;;;;;;1.80;99.90;;;;;;4932503;29;20058;-89
2022/04/04 05:45:26;;;;;;;;;;;1.70;99.90;;;;;;4932351;29;19911;-90
2022/04/04 05:47:52;;;;;;;;;;;1.70;99.90;;;;;;4934135;29;20372;-90
2022/04/04 05:50:18;;;;;;;;;;;1.70;99.90;;;;;;4932402;29;20415;-90
2022/04/04 05:52:44;;;;;;;;;;;1.70;99.90;;;;;;4934008;29;19911;-89
2022/04/04 05:55:10;;;;;;;;;;;1.70;99.90;;;;;;4933632;29;19911;-90
2022/04/04 05:57:38;;;;;;;;;;;1.70;99.90;;;;;;4932553;29;20112;-90
2022/04/04 06:00:13;;;;;;;;;;;1.80;99.90;;;;;;4932408;29;20439;-90
2022/04/04 06:02:40;;;;;;;;;;;1.80;99.90;;;;;;4932454;29;19915;-90
2022/04/04 06:05:06;;;;;;;;;;;1.80;99.90;;;;;;4917136;29;20367;-90
2022/04/04 06:07:32;;;;;;;;;;;1.80;99.90;;;;;;4933756;29;19918;-89
2022/04/04 06:09:58;;;;;;;;;;;1.90;99.90;;;;;;4932794;29;19934;-90
2022/04/04 06:12:23;;;;;;;;;;;1.90;99.90;;;;;;4933651;29;20368;-90
2022/04/04 06:14:49;;;;;;;;;;;1.90;99.90;;;;;;4932163;29;20022;-90
2022/04/04 06:17:15;;;;;;;;;;;2.00;99.90;;;;;;4934739;29;19911;-90
2022/04/04 06:19:41;;;;;;;;;;;2.00;99.90;;;;;;4934088;29;20284;-89
2022/04/04 06:22:07;;;;;;;;;;;2.10;99.90;;;;;;4932510;29;19918;-90
2022/04/04 06:24:33;;;;;;;;;;;2.10;99.90;;;;;;4933679;29;19915;-90
2022/04/04 06:26:59;;;;;;;;;;;2.20;99.90;;;;;;4931321;29;19993;-90
2022/04/04 06:29:24;;;;;;;;;;;2.30;99.90;;;;;;4916636;29;20379;-90
2022/04/04 06:31:51;;;;;;;;;;;2.40;99.90;;;;;;4933456;29;19922;-90
2022/04/04 06:34:17;;;;;;;;;;;2.50;99.90;;;;;;4932069;29;20375;-90
2022/04/04 06:36:43;;;;;;;;;;;2.50;99.90;;;;;;4932288;29;19942;-92
2022/04/04 06:39:08;;;;;;;;;;;2.70;99.90;;;;;;4933461;29;19946;-91
2022/04/04 06:41:36;;;;;;;;;;;2.80;99.90;;;;;;4931982;29;20411;-90
2022/04/04 06:44:02;;;;;;;;;;;2.90;99.90;;;;;;4930978;29;20076;-91
2022/04/04 06:46:28;;;;;;;;;;;3.00;99.90;;;;;;4931946;29;20295;-90
2022/04/04 06:48:53;;;;;;;;;;;3.10;99.90;;;;;;4933453;29;19924;-90
2022/04/04 06:51:19;;;;;;;;;;;3.10;99.90;;;;;;4934966;29;19915;-90
2022/04/04 06:53:45;;;;;;;;;;;3.20;99.90;;;;;;4936927;29;19915;-90
2022/04/04 06:56:11;;;;;;;;;;;3.30;99.90;;;;;;4936169;29;20005;-90
2022/04/04 06:58:37;;;;;;;;;;;3.30;99.90;;;;;;4937175;29;19911;-90
2022/04/04 07:01:03;;;;;;;;;;;3.40;99.90;;;;;;4935556;29;19933;-90
2022/04/04 07:03:28;;;;;;;;;;;3.50;99.90;;;;;;4936600;29;19942;-90
2022/04/04 07:05:54;;;;;;;;;;;3.60;99.90;;;;;;4935365;29;19966;-90
2022/04/04 07:08:20;;;;;;;;;;;3.60;99.90;;;;;;4936980;29;19911;-93
2022/04/04 07:10:46;;;;;;;;;;;3.70;99.90;;;;;;4935349;29;19911;-90
2022/04/04 07:13:12;;;;;;;;;;;3.70;99.90;;;;;;4935225;29;19911;-89
2022/04/04 07:15:38;;;;;;;;;;;3.60;99.90;;;;;;4935324;29;20527;-90
2022/04/04 07:18:03;;;;;;;;;;;3.50;99.90;;;;;;4934930;29;19911;-90
2022/04/04 07:20:29;;;;;;;;;;;3.60;99.90;;;;;;4936110;29;19911;-90
2022/04/04 07:22:55;;;;;;;;;;;3.70;99.90;;;;;;4936280;29;20384;-89
2022/04/04 07:25:22;;;;;;;;;;;3.80;99.90;;;;;;4934882;29;19915;-90
2022/04/04 07:27:48;;;;;;;;;;;3.80;99.90;;;;;;4936184;29;20013;-90
2022/04/04 07:30:17;;;;;;;;;;;3.90;99.90;;;;;;4934888;29;19918;-90
2022/04/04 07:32:42;;;;;;;;;;;4.00;99.90;;;;;;4934817;29;19958;-90
2022/04/04 07:35:11;;;;;;;;;;;4.10;99.90;;;;;;4918962;29;19919;-90
2022/04/04 07:37:46;;;;;;;;;;;4.20;99.90;;;;;;4935923;29;19911;-90
2022/04/04 07:40:14;;;;;;;;;;;4.30;99.90;;;;;;4937021;29;19911;-90
2022/04/04 07:42:41;;;;;;;;;;;4.40;99.90;;;;;;4940289;29;20460;-90
2022/04/04 07:45:07;;;;;;;;;;;4.40;99.90;;;;;;4935939;29;19911;-90
2022/04/04 07:47:33;;;;;;;;;;;4.50;99.90;;;;;;4934397;29;19958;-90
2022/04/04 07:50:01;;;;;;;;;;;4.60;99.90;;;;;;4934357;29;19966;-90
2022/04/04 07:52:27;;;;;;;;;;;4.80;99.90;;;;;;4934468;29;19918;-90
2022/04/04 07:54:53;;;;;;;;;;;5.00;99.90;;;;;;4935825;29;19911;-90
2022/04/04 07:57:19;;;;;;;;;;;5.10;99.90;;;;;;4935539;29;20291;-90
2022/04/04 07:59:45;;;;;;;;;;;5.10;99.90;;;;;;4935567;29;19915;-90
2022/04/04 08:02:11;;;;;;;;;;;5.20;99.90;;;;;;4918195;29;19911;-90
2022/04/04 08:04:37;;;;;;;;;;;5.20;99.90;;;;;;4935787;29;19915;-90
2022/04/04 08:07:05;;;;;;;;;;;5.40;99.90;;;;;;4934247;29;19922;-90
2022/04/04 08:09:30;;;;;;;;;;;5.40;99.90;;;;;;4935497;29;19917;-90
2022/04/04 08:11:56;;;;;;;;;;;5.50;99.90;;;;;;4935393;29;19911;-90
2022/04/04 08:14:22;;;;;;;;;;;5.60;99.90;;;;;;4935278;29;19993;-90
2022/04/04 08:16:48;;;;;;;;;;;5.60;99.90;;;;;;4935318;29;19995;-90
2022/04/04 08:19:13;;;;;;;;;;;5.70;99.90;;;;;;4934993;29;20138;-90
2022/04/04 08:21:41;;;;;;;;;;;5.80;99.90;;;;;;4935136;29;20030;-90
2022/04/04 08:24:07;;;;;;;;;;;5.90;99.90;;;;;;4933771;29;20387;-90
2022/04/04 08:26:34;;;;;;;;;;;6.10;99.90;;;;;;4935058;29;19911;-91
2022/04/04 08:29:00;;;;;;;;;;;6.20;99.90;;;;;;4933937;29;20454;-90
2022/04/04 08:31:25;;;;;;;;;;;6.30;99.90;;;;;;4933538;29;19911;-90
2022/04/04 08:33:51;;;;;;;;;;;6.30;99.90;;;;;;4933771;29;19966;-90
2022/04/04 08:36:17;;;;;;;;;;;6.30;99.90;;;;;;4933625;29;20393;-90
2022/04/04 08:38:42;;;;;;;;;;;6.50;99.90;;;;;;4934622;29;19911;-90
2022/04/04 08:41:10;;;;;;;;;;;6.50;99.90;;;;;;4933552;29;19966;-90
2022/04/04 08:43:39;;;;;;;;;;;6.60;99.90;;;;;;4934597;29;19918;-90
2022/04/04 08:46:06;;;;;;;;;;;6.70;99.90;;;;;;4933376;29;19962;-90
2022/04/04 08:48:39;;;;;;;;;;;6.70;99.90;;;;;;4934791;29;19915;-90
2022/04/04 08:51:07;;;;;;;;;;;6.80;99.90;;;;;;4933516;29;19962;-90
2022/04/04 08:53:37;;;;;;;;;;;6.90;99.90;;;;;;4933266;29;19910;-90
2022/04/04 08:56:04;;;;;;;;;;;7.00;99.90;;;;;;4934435;29;20442;-91
2022/04/04 08:58:29;;;;;;;;;;;7.20;99.90;;;;;;4934634;29;19914;-90
2022/04/04 09:00:55;;;;;;;;;;;7.30;99.90;;;;;;4932890;29;19965;-90
2022/04/04 09:03:22;;;;;;;;;;;7.30;99.90;;;;;;4932993;29;19919;-91
2022/04/04 09:05:51;;;;;;;;;;;7.30;99.30;;;;;;4937482;29;20414;-91
2022/04/04 09:08:18;;;;;;;;;;;7.30;99.00;;;;;;4935712;29;20391;-91
2022/04/04 09:10:44;;;;;;;;;;;7.40;99.80;;;;;;4933216;29;19911;-91
2022/04/04 09:13:10;;;;;;;;;;;7.50;99.90;;;;;;4932788;29;19918;-90
2022/04/04 09:15:54;;;;;;;;;;;7.60;98.90;;;;;;4934406;29;19911;-90
2022/04/04 09:18:41;;;;;;;;;;;7.60;99.80;;;;;;4917392;29;20022;-90
2022/04/04 09:21:11;;;;;;;;;;;7.60;96.50;;;;;;4932680;29;19911;-91
2022/04/04 09:23:58;;;;;;;;;;;7.60;94.50;;;;;;4932829;29;20010;-90
2022/04/04 09:26:33;;;;;;;;;;;7.70;96.10;;;;;;4932516;29;19910;-90
2022/04/04 09:29:00;;;;;;;;;;;7.80;96.10;;;;;;4917101;29;19915;-91
2022/04/04 09:31:26;;;;;;;;;;;7.90;95.40;;;;;;4934022;29;19998;-91
2022/04/04 09:33:51;;;;;;;;;;;8.00;96.60;;;;;;4932748;29;20335;-90
2022/04/04 09:36:17;;;;;;;;;;;8.10;94.70;;;;;;4934325;29;19917;-90
2022/04/04 09:38:43;;;;;;;;;;;8.20;94.70;;;;;;4933823;29;19911;-90
2022/04/04 09:41:15;;;;;;;;;;;8.20;93.90;;;;;;4917000;29;20071;-90
2022/04/04 09:43:50;;;;;;;;;;;8.20;93.10;;;;;;4933767;29;19919;-90
2022/04/04 09:46:15;;;;;;;;;;;8.40;91.80;;;;;;4917173;29;20253;-90
2022/04/04 09:49:00;;;;;;;;;;;8.50;91.30;;;;;;4933721;29;19926;-90
2022/04/04 09:51:39;;;;;;;;;;;8.70;94.40;;;;;;4934911;29;19952;-90
2022/04/04 09:54:05;;;;;;;;;;;8.70;95.50;;;;;;4932610;29;19911;-90
2022/04/04 09:56:31;;;;;;;;;;;8.90;93.60;;;;;;4933757;29;20050;-90
2022/04/04 09:58:58;;;;;;;;;;;8.90;91.00;;;;;;4934051;29;20010;-90
2022/04/04 10:01:24;;;;;;;;;;;8.90;90.40;;;;;;4933497;29;20389;-90
2022/04/04 10:03:51;;;;;;;;;;;8.90;93.10;;;;;;4934033;29;19942;-90
2022/04/04 10:06:18;;;;;;;;;;;8.90;94.60;;;;;;4916703;29;19915;-91
2022/04/04 10:08:44;;;;;;;;;;;8.60;95.50;;;;;;4933735;29;19911;-91
2022/04/04 10:11:09;;;;;;;;;;;8.50;95.50;;;;;;4933986;29;20292;-91
2022/04/04 10:13:35;;;;;;;;;;;8.80;95.70;;;;;;4932469;29;20388;-91
2022/04/04 10:16:01;;;;;;;;;;;9.00;93.00;;;;;;4933452;29;20303;-91
2022/04/04 10:18:27;;;;;;;;;;;9.10;89.50;;;;;;4935541;29;20181;-91
2022/04/04 10:20:53;;;;;;;;;;;9.20;87.70;;;;;;4936266;29;20360;-90
2022/04/04 10:23:20;;;;;;;;;;;9.20;87.10;;;;;;4932176;29;19922;-90
2022/04/04 10:25:48;;;;;;;;;;;9.10;86.30;;;;;;4934174;29;20363;-90
2022/04/04 10:28:25;;;;;;;;;;;8.90;86.30;;;;;;4937684;29;19918;-91
2022/04/04 10:30:51;;;;;;;;;;;8.90;87.60;;;;;;4938399;29;19911;-93
2022/04/04 10:33:22;;;;;;;;;;;8.90;81.30;;;;;;4941453;29;19958;-91
2022/04/04 10:36:20;;;;;;;;;;;8.90;82.20;;;;;;4935101;29;19915;-91
2022/04/04 10:38:47;;;;;;;;;;;9.00;83.40;;;;;;4896084;29;19938;-90
2022/04/04 10:41:20;;;;;;;;;;;8.90;82.50;;;;;;4918877;29;19961;-91
2022/04/04 10:43:47;;;;;;;;;;;8.90;82.10;;;;;;4935617;29;19937;-93
2022/04/04 10:46:14;;;;;;;;;;;9.10;78.80;;;;;;4936012;29;19918;-96
2022/04/04 10:48:41;;;;;;;;;;;9.30;78.90;;;;;;4936608;29;19949;-90
2022/04/04 10:51:12;;;;;;;;;;;9.30;78.90;;;;;;4935490;29;19922;-90
2022/04/04 10:53:37;;;;;;;;;;;9.30;79.10;;;;;;4937217;29;19911;-91
2022/04/04 10:56:04;;;;;;;;;;;9.30;78.20;;;;;;4936777;29;19958;-90
2022/04/04 10:58:30;;;;;;;;;;;9.30;78.80;;;;;;4936525;29;19911;-91
2022/04/04 11:00:55;;;;;;;;;;;9.40;78.30;;;;;;4936288;29;19971;-91
2022/04/04 11:03:31;;;;;;;;;;;9.40;76.10;;;;;;4936448;29;19923;-90
2022/04/04 11:08:58;;;;;;;;;;;9.40;77.80;;;;;;4936808;29;19918;-90
2022/04/04 11:11:40;;;;;;;;;;;9.50;77.60;;;;;;4936459;29;20383;-90
2022/04/04 11:14:06;;;;;;;;;;;9.50;79.20;;;;;;4936542;29;20009;-90
2022/04/04 11:16:50;;;;;;;;;;;9.60;76.70;;;;;;4934818;29;20054;-90
2022/04/04 11:19:18;;;;;;;;;;;9.60;77.90;;;;;;4936332;29;19918;-91
2022/04/04 11:21:44;;;;;;;;;;;9.70;76.20;;;;;;4934719;29;20296;-90
2022/04/04 11:24:14;;;;;;;;;;;9.80;77.10;;;;;;4936127;29;19919;-90
2022/04/04 11:26:40;;;;;;;;;;;10.00;78.00;;;;;;4919134;29;19911;-90
2022/04/04 11:29:09;;;;;;;;;;;9.90;75.50;;;;;;4936442;29;19966;-91
2022/04/04 11:31:46;;;;;;;;;;;9.90;77.40;;;;;;4934648;29;19918;-91
2022/04/04 11:34:14;;;;;;;;;;;9.90;76.20;;;;;;4935016;29;20383;-89
2022/04/04 11:36:40;;;;;;;;;;;9.90;77.60;;;;;;4936176;29;20176;-90
2022/04/04 11:39:08;;;;;;;;;;;10.00;76.20;;;;;;4939327;29;19946;-91
2022/04/04 11:41:36;;;;;;;;;;;10.00;79.30;;;;;;4936881;29;19957;-90
2022/04/04 11:44:05;;;;;;;;;;;10.10;76.20;;;;;;4934320;29;19925;-90
2022/04/04 11:46:31;;;;;;;;;;;10.00;75.60;;;;;;4934942;29;20308;-92
2022/04/04 11:48:59;;;;;;;;;;;10.00;79.00;;;;;;4934662;29;20105;-91
2022/04/04 11:51:31;;;;;;;;;;;10.00;78.90;;;;;;4934861;29;19914;-91
2022/04/04 11:54:03;;;;;;;;;;;10.10;80.00;;;;;;4935908;29;19911;-91
2022/04/04 11:56:28;;;;;;;;;;;10.10;77.90;;;;;;4936557;29;19934;-91
2022/04/04 11:58:57;;;;;;;;;;;10.10;78.50;;;;;;4936500;29;23559;-91
2022/04/04 12:01:32;;;;;;;;;;;10.20;79.00;;;;;;4934211;29;19925;-91
2022/04/04 12:04:00;;;;;;;;;;;10.20;79.30;;;;;;4934608;29;19981;-91
2022/04/04 12:06:28;;;;;;;;;;;10.20;77.80;;;;;;4934344;29;20172;-90
2022/04/04 12:08:55;;;;;;;;;;;10.30;79.00;;;;;;4934320;29;19911;-92
2022/04/04 12:11:30;;;;;;;;;;;10.30;79.10;;;;;;4934284;29;20392;-91
2022/04/04 12:14:00;;;;;;;;;;;10.30;79.50;;;;;;4935354;29;20324;-91
2022/04/04 12:16:26;;;;;;;;;;;10.40;78.20;;;;;;4934161;29;19965;-91
2022/04/04 12:18:57;;;;;;;;;;;10.40;77.30;;;;;;4935228;29;19914;-91
2022/04/04 12:21:23;;;;;;;;;;;10.50;79.60;;;;;;4934062;29;19920;-91
2022/04/04 12:26:34;;;;;;;;;;;10.50;75.40;;;;;;4935609;29;19921;-91
2022/04/04 12:29:00;;;;;;;;;;;10.60;75.10;;;;;;4934076;29;19958;-90
2022/04/04 12:31:27;;;;;;;;;;;10.60;73.20;;;;;;4935314;29;19973;-91
2022/04/04 12:34:00;;;;;;;;;;;10.60;74.30;;;;;;4933986;29;20364;-90
2022/04/04 12:36:38;;;;;;;;;;;10.70;78.20;;;;;;4933734;29;20398;-91
2022/04/04 12:39:05;;;;;;;;;;;10.90;76.20;;;;;;4934979;29;19910;-91
2022/04/04 12:42:01;;;;;;;;;;;10.80;75.00;;;;;;4934958;29;20324;-91
2022/04/04 12:44:27;;;;;;;;;;;10.80;76.70;;;;;;4913727;29;19974;-91
2022/04/04 12:47:07;;;;;;;;;;;10.90;76.50;;;;;;4935334;29;19911;-90
2022/04/04 12:49:33;;;;;;;;;;;10.90;75.70;;;;;;4933056;29;19923;-90
2022/04/04 12:52:06;;;;;;;;;;;11.10;75.10;;;;;;4934890;29;19962;-90
2022/04/04 12:54:32;;;;;;;;;;;10.90;76.10;;;;;;4934984;29;19911;-91
2022/04/04 12:56:59;;;;;;;;;;;10.90;76.90;;;;;;4934771;29;19938;-91
2022/04/04 12:59:26;;;;;;;;;;;11.10;76.80;;;;;;4933152;29;19950;-90
2022/04/04 13:02:03;;;;;;;;;;;11.00;76.00;;;;;;4933232;29;19914;-90
2022/04/04 13:04:30;;;;;;;;;;;11.00;77.00;;;;;;4934501;29;19923;-91
2022/04/04 13:06:57;;;;;;;;;;;11.00;76.10;;;;;;4934566;29;20403;-90
2022/04/04 13:09:24;;;;;;;;;;;11.00;77.90;;;;;;4934435;29;19910;-91
2022/04/04 13:11:50;;;;;;;;;;;11.10;76.90;;;;;;4917718;29;19957;-90
2022/04/04 13:14:16;;;;;;;;;;;11.30;78.00;;;;;;4933134;29;19918;-91
2022/04/04 13:16:43;;;;;;;;;;;11.20;76.90;;;;;;4934404;29;19911;-91
2022/04/04 13:19:10;;;;;;;;;;;11.20;80.10;;;;;;4933181;29;20062;-90
2022/04/04 13:21:36;;;;;;;;;;;11.40;78.10;;;;;;4932917;29;20069;-91
2022/04/04 13:24:03;;;;;;;;;;;11.60;79.20;;;;;;4935491;29;19925;-90
2022/04/04 13:26:28;;;;;;;;;;;11.60;77.70;;;;;;4934003;29;20005;-91
2022/04/04 13:28:54;;;;;;;;;;;11.40;78.90;;;;;;4938835;29;20001;-91
2022/04/04 13:31:20;;;;;;;;;;;11.20;77.00;;;;;;4916902;29;19911;-91
2022/04/04 13:33:46;;;;;;;;;;;11.30;79.70;;;;;;4932815;29;19915;-90
2022/04/04 13:36:12;;;;;;;;;;;11.40;80.20;;;;;;4932961;29;19911;-91
2022/04/04 13:38:38;;;;;;;;;;;11.60;81.70;;;;;;4932797;29;19962;-90
2022/04/04 13:41:03;;;;;;;;;;;11.80;80.10;;;;;;4932701;29;19911;-90
2022/04/04 13:43:29;;;;;;;;;;;11.80;79.70;;;;;;4932523;29;19919;-90
2022/04/04 13:45:55;;;;;;;;;;;11.70;82.60;;;;;;4933773;29;20414;-91
2022/04/04 13:48:20;;;;;;;;;;;11.80;82.60;;;;;;4932190;29;19938;-91
2022/04/04 13:50:46;;;;;;;;;;;11.90;80.70;;;;;;4932495;29;19953;-90
2022/04/04 13:53:12;;;;;;;;;;;12.00;79.40;;;;;;4934012;29;19938;-91
2022/04/04 13:55:37;;;;;;;;;;;12.00;80.80;;;;;;4933734;29;20356;-90
2022/04/04 13:58:05;;;;;;;;;;;12.00;80.90;;;;;;4934177;29;19921;-90
2022/04/04 14:00:31;;;;;;;;;;;12.00;78.80;;;;;;4935506;29;20295;-90
2022/04/04 14:02:57;;;;;;;;;;;12.00;79.80;;;;;;4937599;29;19923;-91
2022/04/04 14:05:23;;;;;;;;;;;12.20;81.50;;;;;;4936213;29;20287;-91
2022/04/04 14:07:49;;;;;;;;;;;12.40;81.10;;;;;;4937738;29;19942;-91
2022/04/04 14:10:14;;;;;;;;;;;12.60;80.60;;;;;;4936393;29;19911;-89
2022/04/04 14:12:40;;;;;;;;;;;12.90;80.00;;;;;;4936300;29;19911;-91
2022/04/04 14:15:06;;;;;;;;;;;13.00;78.60;;;;;;4937559;29;20383;-91
2022/04/04 14:17:35;;;;;;;;;;;13.20;77.50;;;;;;4936175;29;19911;-91
2022/04/04 14:20:05;;;;;;;;;;;13.30;78.10;;;;;;4937524;29;19911;-92
2022/04/04 14:22:30;;;;;;;;;;;13.30;77.60;;;;;;4936025;29;20041;-91
2022/04/04 14:24:57;;;;;;;;;;;13.80;77.60;;;;;;4937326;29;20041;-91
2022/04/04 14:27:26;;;;;;;;;;;13.80;77.90;;;;;;4937200;29;19911;-91
2022/04/04 14:29:52;;;;;;;;;;;14.60;78.30;;;;;;4935846;29;19914;-91
2022/04/04 14:32:18;;;;;;;;;;;15.00;78.80;;;;;;4937230;29;19922;-91
2022/04/04 14:34:44;;;;;;;;;;;16.00;75.90;;;;;;4935929;29;20414;-90